createdAt,value
2019-05-09T14:55:02.193Z,3.33
2019-05-09T15:05:37.853Z,2.45
2019-05-09T15:09:08.815Z,2.52
2019-05-09T15:12:39.342Z,2.22
2019-05-09T15:16:09.406Z,1.87
2019-05-09T15:19:39.455Z,1.72
2019-05-09T15:23:09.629Z,2.52
2019-05-09T15:26:40.638Z,3.12
2019-05-09T15:30:10.797Z,3.62
2019-05-09T15:33:41.385Z,4.03
2019-05-09T15:37:11.199Z,3.52
2019-05-09T15:40:41.303Z,3.42
2019-05-09T15:44:12.111Z,3.58
2019-05-09T15:47:42.678Z,3.40
2019-05-09T15:51:12.738Z,3.75
2019-05-09T15:54:43.160Z,3.95
2019-05-09T15:58:12.711Z,3.50
2019-05-09T16:01:42.298Z,3.90
2019-05-09T16:05:12.117Z,3.42
2019-05-09T16:08:42.616Z,3.62
2019-05-09T16:12:12.665Z,4.08
2019-05-09T16:15:42.495Z,4.90
2019-05-09T16:19:12.601Z,5.50
2019-05-09T16:22:42.702Z,4.95
2019-05-09T16:26:13.021Z,5.20
2019-05-09T16:29:43.033Z,6.15
2019-05-09T16:33:13.183Z,5.67
2019-05-09T16:36:43.444Z,5.62
2019-05-09T16:40:13.589Z,5.37
2019-05-09T16:43:44.188Z,6.08
2019-05-09T16:47:14.277Z,6.17
2019-05-09T16:50:57.685Z,5.65
2019-05-09T16:54:17.992Z,5.22
2019-05-09T16:57:48.595Z,6.00
2019-05-09T17:01:18.753Z,6.10
2019-05-09T17:04:49.432Z,6.08
2019-05-09T17:08:19.213Z,5.67
2019-05-09T17:11:49.125Z,5.67
2019-05-09T17:15:19.697Z,5.58
2019-05-09T17:18:49.582Z,6.05
2019-05-09T17:22:38.206Z,6.62
2019-05-09T17:26:08.727Z,5.53
2019-05-09T17:29:40.610Z,5.28
2019-05-09T17:33:11.553Z,6.12
2019-05-09T17:36:42.071Z,5.35
2019-05-09T17:40:12.012Z,5.50
2019-05-09T17:43:41.833Z,6.05
2019-05-09T17:47:13.370Z,5.37
2019-05-09T17:50:43.476Z,4.00
2019-05-09T17:54:13.843Z,4.03
2019-05-09T17:57:44.394Z,3.58
2019-05-09T18:01:15.108Z,3.17
2019-05-09T18:04:47.982Z,3.55
2019-05-09T18:08:18.987Z,3.98
2019-05-09T18:11:49.843Z,4.45
2019-05-09T18:15:20.466Z,5.53
2019-05-09T18:18:53.635Z,5.20
2019-05-09T18:22:23.700Z,5.30
2019-05-09T18:25:53.802Z,5.03
2019-05-09T18:29:23.669Z,4.00
2019-05-09T18:33:01.927Z,2.67
2019-05-09T18:36:31.515Z,2.70
2019-05-09T18:40:01.823Z,3.08
2019-05-09T18:43:32.300Z,3.85
2019-05-09T18:47:02.192Z,3.22
2019-05-09T18:50:31.819Z,3.40
2019-05-09T18:54:02.067Z,3.80
2019-05-09T18:57:31.898Z,3.35
2019-05-09T19:01:02.438Z,3.72
2019-05-09T19:04:32.596Z,3.37
2019-05-09T19:08:02.977Z,4.40
2019-05-09T19:11:33.507Z,3.72
2019-05-09T19:15:07.306Z,3.92
2019-05-09T19:18:39.204Z,3.30
2019-05-09T19:22:21.508Z,3.60
2019-05-09T19:25:41.497Z,3.98
2019-05-09T19:29:12.418Z,4.30
2019-05-09T19:32:42.713Z,5.08
2019-05-09T19:36:12.864Z,4.83
2019-05-09T19:39:43.091Z,5.15
2019-05-09T19:43:13.225Z,4.33
2019-05-09T19:46:43.505Z,3.77
2019-05-09T19:50:13.768Z,3.95
2019-05-09T19:53:44.720Z,4.00
2019-05-09T19:57:15.570Z,4.60
2019-05-09T20:00:45.392Z,4.80
2019-05-09T20:04:15.471Z,5.10
2019-05-09T20:07:47.299Z,4.03
2019-05-09T20:11:22.354Z,4.80
2019-05-09T20:14:54.619Z,3.67
2019-05-09T20:18:25.429Z,4.12
2019-05-09T20:21:57.480Z,2.95
2019-05-09T20:25:28.275Z,4.95
2019-05-09T20:28:57.918Z,5.85
2019-05-09T20:32:28.373Z,4.75
2019-05-09T20:35:58.578Z,5.50
2019-05-09T20:39:30.922Z,5.65
2019-05-09T20:43:00.338Z,5.45
2019-05-09T20:46:30.653Z,5.45
2019-05-09T20:50:01.081Z,5.70
2019-05-09T20:53:31.708Z,6.17
2019-05-09T20:57:02.429Z,5.15
2019-05-09T21:00:33.219Z,4.45
2019-05-09T21:04:03.425Z,5.10
2019-05-09T21:07:33.647Z,4.72
2019-05-09T21:11:04.875Z,4.40
2019-05-09T21:14:35.175Z,4.25
2019-05-09T21:18:05.366Z,3.75
2019-05-09T21:21:40.043Z,3.20
2019-05-09T21:25:10.292Z,3.65
2019-05-09T21:28:40.339Z,3.90
2019-05-09T21:32:11.163Z,3.60
2019-05-09T21:35:41.271Z,3.35
2019-05-09T21:39:11.657Z,3.22
2019-05-09T21:42:42.305Z,3.00
2019-05-09T21:46:12.071Z,3.25
2019-05-09T21:49:42.405Z,2.67
2019-05-09T21:53:13.336Z,3.05
2019-05-09T21:56:43.897Z,3.08
2019-05-09T22:00:17.132Z,3.35
2019-05-09T22:03:49.342Z,3.22
2019-05-09T22:07:19.623Z,2.87
2019-05-09T22:10:50.557Z,2.70
2019-05-09T22:14:21.591Z,2.92
2019-05-09T22:17:52.314Z,2.47
2019-05-09T22:21:22.657Z,2.27
2019-05-09T22:24:52.416Z,2.72
2019-05-09T22:28:22.147Z,2.83
2019-05-09T22:31:52.229Z,2.98
2019-05-09T22:35:23.709Z,3.10
2019-05-09T22:38:53.684Z,3.05
2019-05-09T22:42:23.613Z,3.52
2019-05-09T22:45:53.559Z,3.10
2019-05-09T22:49:24.199Z,3.70
2019-05-09T22:52:54.568Z,3.40
2019-05-09T22:56:24.388Z,3.52
2019-05-09T22:59:54.060Z,3.33
2019-05-09T23:03:23.698Z,3.15
2019-05-09T23:06:53.230Z,3.62
2019-05-09T23:10:23.312Z,4.15
2019-05-09T23:13:53.551Z,3.25
2019-05-09T23:17:23.342Z,4.03
2019-05-09T23:20:55.054Z,3.62
2019-05-09T23:24:28.796Z,3.45
2019-05-09T23:27:58.752Z,3.22
2019-05-09T23:31:34.265Z,3.00
2019-05-09T23:35:05.724Z,2.80
2019-05-09T23:38:37.956Z,3.25
2019-05-09T23:42:08.550Z,2.85
2019-05-09T23:45:38.782Z,2.75
2019-05-09T23:49:09.025Z,2.92
2019-05-09T23:52:39.025Z,2.90
2019-05-09T23:56:26.677Z,2.42
